sensor_id;sensor_type;location;lat;lon;timestamp;P1;durP1;ratioP1;P2;durP2;ratioP2
66751;SDS011;53663;42.676;23.238;2022-10-16T00:01:37;12.77;;;6.18;;
66751;SDS011;53663;42.676;23.238;2022-10-16T00:04:03;16.80;;;5.90;;
66751;SDS011;53663;42.676;23.238;2022-10-16T00:06:29;11.98;;;5.80;;
66751;SDS011;53663;42.676;23.238;2022-10-16T00:08:55;11.75;;;7.05;;
66751;SDS011;53663;42.676;23.238;2022-10-16T00:11:23;14.57;;;7.40;;
66751;SDS011;53663;42.676;23.238;2022-10-16T00:13:55;11.60;;;7.45;;
66751;SDS011;53663;42.676;23.238;2022-10-16T00:16:22;10.90;;;6.55;;
66751;SDS011;53663;42.676;23.238;2022-10-16T00:18:48;13.23;;;7.65;;
66751;SDS011;53663;42.676;23.238;2022-10-16T00:21:15;13.38;;;8.35;;
66751;SDS011;53663;42.676;23.238;2022-10-16T00:23:43;15.18;;;8.98;;
66751;SDS011;53663;42.676;23.238;2022-10-16T00:26:11;12.50;;;7.82;;
66751;SDS011;53663;42.676;23.238;2022-10-16T00:28:39;14.73;;;7.82;;
66751;SDS011;53663;42.676;23.238;2022-10-16T00:31:05;11.48;;;6.63;;
66751;SDS011;53663;42.676;23.238;2022-10-16T00:33:32;11.23;;;6.38;;
66751;SDS011;53663;42.676;23.238;2022-10-16T00:35:58;9.13;;;5.60;;
66751;SDS011;53663;42.676;23.238;2022-10-16T00:38:25;14.10;;;5.45;;
66751;SDS011;53663;42.676;23.238;2022-10-16T00:40:51;9.45;;;5.70;;
66751;SDS011;53663;42.676;23.238;2022-10-16T00:43:33;10.63;;;5.22;;
66751;SDS011;53663;42.676;23.238;2022-10-16T00:46:13;10.60;;;5.47;;
66751;SDS011;53663;42.676;23.238;2022-10-16T00:48:44;12.13;;;6.18;;
66751;SDS011;53663;42.676;23.238;2022-10-16T00:51:17;13.65;;;6.30;;
66751;SDS011;53663;42.676;23.238;2022-10-16T00:53:46;17.70;;;7.32;;
66751;SDS011;53663;42.676;23.238;2022-10-16T00:56:13;23.50;;;7.63;;
66751;SDS011;53663;42.676;23.238;2022-10-16T00:58:39;18.00;;;8.30;;
66751;SDS011;53663;42.676;23.238;2022-10-16T01:01:04;12.80;;;6.78;;
66751;SDS011;53663;42.676;23.238;2022-10-16T01:03:31;13.25;;;6.70;;
66751;SDS011;53663;42.676;23.238;2022-10-16T01:06:08;14.20;;;6.60;;
66751;SDS011;53663;42.676;23.238;2022-10-16T01:11:57;13.33;;;6.00;;
66751;SDS011;53663;42.676;23.238;2022-10-16T01:14:37;15.35;;;6.50;;
66751;SDS011;53663;42.676;23.238;2022-10-16T01:17:15;12.27;;;6.20;;
66751;SDS011;53663;42.676;23.238;2022-10-16T01:19:51;10.90;;;6.47;;
66751;SDS011;53663;42.676;23.238;2022-10-16T01:27:39;13.00;;;5.53;;
66751;SDS011;53663;42.676;23.238;2022-10-16T01:30:15;11.27;;;5.60;;
66751;SDS011;53663;42.676;23.238;2022-10-16T01:32:50;10.27;;;5.60;;
66751;SDS011;53663;42.676;23.238;2022-10-16T01:35:38;14.52;;;5.53;;
66751;SDS011;53663;42.676;23.238;2022-10-16T01:38:15;12.35;;;5.60;;
66751;SDS011;53663;42.676;23.238;2022-10-16T01:40:45;7.57;;;5.55;;
66751;SDS011;53663;42.676;23.238;2022-10-16T01:43:15;10.18;;;5.13;;
66751;SDS011;53663;42.676;23.238;2022-10-16T01:48:18;10.57;;;5.72;;
66751;SDS011;53663;42.676;23.238;2022-10-16T01:50:50;12.88;;;6.13;;
66751;SDS011;53663;42.676;23.238;2022-10-16T01:53:20;14.30;;;6.65;;
66751;SDS011;53663;42.676;23.238;2022-10-16T01:55:47;9.40;;;5.32;;
66751;SDS011;53663;42.676;23.238;2022-10-16T01:58:14;10.75;;;5.80;;
66751;SDS011;53663;42.676;23.238;2022-10-16T02:00:42;11.52;;;6.07;;
66751;SDS011;53663;42.676;23.238;2022-10-16T02:03:11;7.78;;;5.43;;
66751;SDS011;53663;42.676;23.238;2022-10-16T02:08:06;12.25;;;5.95;;
66751;SDS011;53663;42.676;23.238;2022-10-16T02:10:32;14.48;;;6.43;;
66751;SDS011;53663;42.676;23.238;2022-10-16T02:13:05;16.15;;;6.40;;
66751;SDS011;53663;42.676;23.238;2022-10-16T02:15:31;11.18;;;6.28;;
66751;SDS011;53663;42.676;23.238;2022-10-16T02:17:57;11.25;;;6.30;;
66751;SDS011;53663;42.676;23.238;2022-10-16T02:20:24;12.73;;;6.97;;
66751;SDS011;53663;42.676;23.238;2022-10-16T02:22:53;10.48;;;6.55;;
66751;SDS011;53663;42.676;23.238;2022-10-16T02:25:29;13.68;;;6.32;;
66751;SDS011;53663;42.676;23.238;2022-10-16T02:30:41;12.88;;;6.57;;
66751;SDS011;53663;42.676;23.238;2022-10-16T02:33:10;12.10;;;6.65;;
66751;SDS011;53663;42.676;23.238;2022-10-16T02:35:41;11.48;;;6.50;;
66751;SDS011;53663;42.676;23.238;2022-10-16T02:38:08;10.63;;;5.93;;
66751;SDS011;53663;42.676;23.238;2022-10-16T02:40:35;14.38;;;6.38;;
66751;SDS011;53663;42.676;23.238;2022-10-16T02:43:02;13.52;;;6.72;;
66751;SDS011;53663;42.676;23.238;2022-10-16T02:45:29;13.40;;;6.15;;
66751;SDS011;53663;42.676;23.238;2022-10-16T02:47:55;10.55;;;6.57;;
66751;SDS011;53663;42.676;23.238;2022-10-16T02:50:20;11.50;;;6.43;;
66751;SDS011;53663;42.676;23.238;2022-10-16T02:52:46;12.18;;;6.05;;
66751;SDS011;53663;42.676;23.238;2022-10-16T02:55:12;8.90;;;5.95;;
66751;SDS011;53663;42.676;23.238;2022-10-16T02:57:38;11.60;;;6.03;;
66751;SDS011;53663;42.676;23.238;2022-10-16T03:00:05;11.40;;;6.07;;
66751;SDS011;53663;42.676;23.238;2022-10-16T03:02:32;9.45;;;5.93;;
66751;SDS011;53663;42.676;23.238;2022-10-16T03:04:58;8.85;;;5.90;;
66751;SDS011;53663;42.676;23.238;2022-10-16T03:07:23;15.45;;;6.43;;
66751;SDS011;53663;42.676;23.238;2022-10-16T03:09:49;10.85;;;6.18;;
66751;SDS011;53663;42.676;23.238;2022-10-16T03:12:14;9.25;;;5.90;;
66751;SDS011;53663;42.676;23.238;2022-10-16T03:14:40;12.15;;;5.90;;
66751;SDS011;53663;42.676;23.238;2022-10-16T03:17:05;9.10;;;5.60;;
66751;SDS011;53663;42.676;23.238;2022-10-16T03:19:31;9.48;;;5.70;;
66751;SDS011;53663;42.676;23.238;2022-10-16T03:21:57;12.13;;;6.47;;
66751;SDS011;53663;42.676;23.238;2022-10-16T03:24:22;12.32;;;6.30;;
66751;SDS011;53663;42.676;23.238;2022-10-16T03:26:48;12.25;;;6.47;;
66751;SDS011;53663;42.676;23.238;2022-10-16T03:29:13;11.63;;;6.07;;
66751;SDS011;53663;42.676;23.238;2022-10-16T03:31:39;9.43;;;5.78;;
66751;SDS011;53663;42.676;23.238;2022-10-16T03:34:04;10.02;;;6.25;;
66751;SDS011;53663;42.676;23.238;2022-10-16T03:36:30;10.90;;;5.78;;
66751;SDS011;53663;42.676;23.238;2022-10-16T03:38:56;15.40;;;6.47;;
66751;SDS011;53663;42.676;23.238;2022-10-16T03:41:21;10.43;;;6.25;;
66751;SDS011;53663;42.676;23.238;2022-10-16T03:43:47;8.52;;;5.82;;
66751;SDS011;53663;42.676;23.238;2022-10-16T03:46:13;9.40;;;5.97;;
66751;SDS011;53663;42.676;23.238;2022-10-16T03:48:38;13.00;;;6.35;;
66751;SDS011;53663;42.676;23.238;2022-10-16T03:51:05;9.45;;;6.13;;
66751;SDS011;53663;42.676;23.238;2022-10-16T03:53:31;14.05;;;7.10;;
66751;SDS011;53663;42.676;23.238;2022-10-16T03:55:56;23.25;;;11.25;;
66751;SDS011;53663;42.676;23.238;2022-10-16T03:58:22;25.35;;;12.48;;
66751;SDS011;53663;42.676;23.238;2022-10-16T04:00:48;17.67;;;9.60;;
66751;SDS011;53663;42.676;23.238;2022-10-16T04:03:13;18.42;;;10.15;;
66751;SDS011;53663;42.676;23.238;2022-10-16T04:05:39;15.90;;;9.75;;
66751;SDS011;53663;42.676;23.238;2022-10-16T04:08:05;16.48;;;9.35;;
66751;SDS011;53663;42.676;23.238;2022-10-16T04:10:30;14.82;;;7.95;;
66751;SDS011;53663;42.676;23.238;2022-10-16T04:12:56;10.10;;;6.50;;
66751;SDS011;53663;42.676;23.238;2022-10-16T04:15:22;9.82;;;6.50;;
66751;SDS011;53663;42.676;23.238;2022-10-16T04:17:48;8.98;;;5.90;;
66751;SDS011;53663;42.676;23.238;2022-10-16T04:20:14;11.43;;;6.10;;
66751;SDS011;53663;42.676;23.238;2022-10-16T04:22:40;10.30;;;5.70;;
66751;SDS011;53663;42.676;23.238;2022-10-16T04:25:05;10.55;;;5.13;;
66751;SDS011;53663;42.676;23.238;2022-10-16T04:27:31;9.95;;;5.90;;
66751;SDS011;53663;42.676;23.238;2022-10-16T04:29:57;11.90;;;5.90;;
66751;SDS011;53663;42.676;23.238;2022-10-16T04:32:23;8.30;;;5.25;;
66751;SDS011;53663;42.676;23.238;2022-10-16T04:34:49;11.13;;;5.78;;
66751;SDS011;53663;42.676;23.238;2022-10-16T04:37:14;9.85;;;5.32;;
66751;SDS011;53663;42.676;23.238;2022-10-16T04:39:40;8.60;;;5.63;;
66751;SDS011;53663;42.676;23.238;2022-10-16T04:42:06;12.45;;;6.13;;
66751;SDS011;53663;42.676;23.238;2022-10-16T04:44:31;9.38;;;5.68;;
66751;SDS011;53663;42.676;23.238;2022-10-16T04:46:57;13.40;;;5.85;;
66751;SDS011;53663;42.676;23.238;2022-10-16T04:49:22;8.43;;;5.53;;
66751;SDS011;53663;42.676;23.238;2022-10-16T04:51:48;10.13;;;6.38;;
66751;SDS011;53663;42.676;23.238;2022-10-16T04:54:13;13.20;;;7.15;;
66751;SDS011;53663;42.676;23.238;2022-10-16T04:56:39;13.27;;;8.57;;
66751;SDS011;53663;42.676;23.238;2022-10-16T04:59:15;15.95;;;7.47;;
66751;SDS011;53663;42.676;23.238;2022-10-16T05:01:41;13.98;;;7.30;;
66751;SDS011;53663;42.676;23.238;2022-10-16T05:04:07;11.30;;;6.70;;
66751;SDS011;53663;42.676;23.238;2022-10-16T05:06:33;14.98;;;7.20;;
66751;SDS011;53663;42.676;23.238;2022-10-16T05:08:59;15.75;;;7.38;;
66751;SDS011;53663;42.676;23.238;2022-10-16T05:11:24;15.68;;;7.57;;
66751;SDS011;53663;42.676;23.238;2022-10-16T05:13:50;11.35;;;7.65;;
66751;SDS011;53663;42.676;23.238;2022-10-16T05:16:16;18.17;;;7.93;;
66751;SDS011;53663;42.676;23.238;2022-10-16T05:18:41;10.25;;;7.40;;
66751;SDS011;53663;42.676;23.238;2022-10-16T05:21:07;13.20;;;7.75;;
66751;SDS011;53663;42.676;23.238;2022-10-16T05:23:33;16.27;;;8.10;;
66751;SDS011;53663;42.676;23.238;2022-10-16T05:25:59;8.68;;;6.28;;
66751;SDS011;53663;42.676;23.238;2022-10-16T05:28:25;11.02;;;6.55;;
66751;SDS011;53663;42.676;23.238;2022-10-16T05:30:52;12.43;;;6.25;;
66751;SDS011;53663;42.676;23.238;2022-10-16T05:33:19;14.50;;;6.13;;
66751;SDS011;53663;42.676;23.238;2022-10-16T05:35:46;9.07;;;5.63;;
66751;SDS011;53663;42.676;23.238;2022-10-16T05:38:11;10.80;;;5.70;;
66751;SDS011;53663;42.676;23.238;2022-10-16T05:40:37;9.27;;;5.60;;
66751;SDS011;53663;42.676;23.238;2022-10-16T05:43:02;11.70;;;6.47;;
66751;SDS011;53663;42.676;23.238;2022-10-16T05:45:28;10.48;;;6.13;;
66751;SDS011;53663;42.676;23.238;2022-10-16T05:47:54;14.63;;;6.80;;
66751;SDS011;53663;42.676;23.238;2022-10-16T05:50:19;11.73;;;6.03;;
66751;SDS011;53663;42.676;23.238;2022-10-16T05:52:45;16.55;;;6.03;;
66751;SDS011;53663;42.676;23.238;2022-10-16T05:55:10;10.65;;;5.47;;
66751;SDS011;53663;42.676;23.238;2022-10-16T05:57:36;8.30;;;5.00;;
66751;SDS011;53663;42.676;23.238;2022-10-16T06:00:02;11.70;;;6.15;;
66751;SDS011;53663;42.676;23.238;2022-10-16T06:02:37;12.60;;;6.97;;
66751;SDS011;53663;42.676;23.238;2022-10-16T06:05:04;10.02;;;6.72;;
66751;SDS011;53663;42.676;23.238;2022-10-16T06:07:33;9.50;;;5.75;;
66751;SDS011;53663;42.676;23.238;2022-10-16T06:09:59;10.30;;;5.72;;
66751;SDS011;53663;42.676;23.238;2022-10-16T06:12:25;9.50;;;6.55;;
66751;SDS011;53663;42.676;23.238;2022-10-16T06:14:52;9.52;;;5.75;;
66751;SDS011;53663;42.676;23.238;2022-10-16T06:17:17;13.82;;;6.20;;
66751;SDS011;53663;42.676;23.238;2022-10-16T06:19:43;11.13;;;6.07;;
66751;SDS011;53663;42.676;23.238;2022-10-16T06:22:09;8.88;;;5.22;;
66751;SDS011;53663;42.676;23.238;2022-10-16T06:24:34;9.20;;;5.45;;
66751;SDS011;53663;42.676;23.238;2022-10-16T06:27:00;9.38;;;5.75;;
66751;SDS011;53663;42.676;23.238;2022-10-16T06:29:25;9.55;;;6.05;;
66751;SDS011;53663;42.676;23.238;2022-10-16T06:31:51;12.38;;;7.03;;
66751;SDS011;53663;42.676;23.238;2022-10-16T06:34:18;11.93;;;7.70;;
66751;SDS011;53663;42.676;23.238;2022-10-16T06:36:43;14.00;;;8.38;;
66751;SDS011;53663;42.676;23.238;2022-10-16T06:39:09;17.38;;;8.30;;
66751;SDS011;53663;42.676;23.238;2022-10-16T06:41:34;16.23;;;8.90;;
66751;SDS011;53663;42.676;23.238;2022-10-16T06:44:13;23.08;;;12.60;;
66751;SDS011;53663;42.676;23.238;2022-10-16T06:46:39;21.60;;;10.43;;
66751;SDS011;53663;42.676;23.238;2022-10-16T06:49:04;14.65;;;9.80;;
66751;SDS011;53663;42.676;23.238;2022-10-16T06:51:30;11.48;;;8.43;;
66751;SDS011;53663;42.676;23.238;2022-10-16T06:53:57;14.93;;;7.75;;
66751;SDS011;53663;42.676;23.238;2022-10-16T06:56:23;11.07;;;7.20;;
66751;SDS011;53663;42.676;23.238;2022-10-16T06:58:50;11.95;;;7.05;;
66751;SDS011;53663;42.676;23.238;2022-10-16T07:01:18;19.48;;;8.15;;
66751;SDS011;53663;42.676;23.238;2022-10-16T07:03:45;32.85;;;16.17;;
66751;SDS011;53663;42.676;23.238;2022-10-16T07:06:13;12.98;;;7.18;;
66751;SDS011;53663;42.676;23.238;2022-10-16T07:08:45;13.18;;;7.28;;
66751;SDS011;53663;42.676;23.238;2022-10-16T07:11:21;11.27;;;6.93;;
66751;SDS011;53663;42.676;23.238;2022-10-16T07:13:47;10.02;;;7.20;;
66751;SDS011;53663;42.676;23.238;2022-10-16T07:16:15;11.10;;;6.75;;
66751;SDS011;53663;42.676;23.238;2022-10-16T07:18:42;20.92;;;10.98;;
66751;SDS011;53663;42.676;23.238;2022-10-16T07:21:11;13.02;;;8.18;;
66751;SDS011;53663;42.676;23.238;2022-10-16T07:23:38;14.35;;;8.85;;
66751;SDS011;53663;42.676;23.238;2022-10-16T07:26:05;20.10;;;13.68;;
66751;SDS011;53663;42.676;23.238;2022-10-16T07:28:31;15.07;;;7.97;;
66751;SDS011;53663;42.676;23.238;2022-10-16T07:31:04;11.35;;;7.22;;
66751;SDS011;53663;42.676;23.238;2022-10-16T07:33:32;12.52;;;7.30;;
66751;SDS011;53663;42.676;23.238;2022-10-16T07:35:59;18.83;;;7.97;;
66751;SDS011;53663;42.676;23.238;2022-10-16T07:38:25;14.60;;;8.68;;
66751;SDS011;53663;42.676;23.238;2022-10-16T07:40:57;17.75;;;8.25;;
66751;SDS011;53663;42.676;23.238;2022-10-16T07:43:24;20.20;;;8.18;;
66751;SDS011;53663;42.676;23.238;2022-10-16T07:45:51;19.83;;;12.68;;
66751;SDS011;53663;42.676;23.238;2022-10-16T07:48:18;32.90;;;20.88;;
66751;SDS011;53663;42.676;23.238;2022-10-16T07:50:44;29.23;;;16.45;;
66751;SDS011;53663;42.676;23.238;2022-10-16T07:53:10;16.95;;;8.35;;
66751;SDS011;53663;42.676;23.238;2022-10-16T07:55:37;17.50;;;8.35;;
66751;SDS011;53663;42.676;23.238;2022-10-16T07:58:03;12.85;;;7.75;;
66751;SDS011;53663;42.676;23.238;2022-10-16T08:00:29;16.02;;;10.48;;
66751;SDS011;53663;42.676;23.238;2022-10-16T08:02:56;15.48;;;10.23;;
66751;SDS011;53663;42.676;23.238;2022-10-16T08:05:28;20.27;;;8.95;;
66751;SDS011;53663;42.676;23.238;2022-10-16T08:07:54;11.27;;;7.80;;
66751;SDS011;53663;42.676;23.238;2022-10-16T08:10:21;12.80;;;7.40;;
66751;SDS011;53663;42.676;23.238;2022-10-16T08:12:47;11.43;;;7.70;;
66751;SDS011;53663;42.676;23.238;2022-10-16T08:15:13;21.20;;;12.95;;
66751;SDS011;53663;42.676;23.238;2022-10-16T08:17:39;19.73;;;10.20;;
66751;SDS011;53663;42.676;23.238;2022-10-16T08:20:04;18.45;;;9.32;;
66751;SDS011;53663;42.676;23.238;2022-10-16T08:22:30;13.63;;;8.43;;
66751;SDS011;53663;42.676;23.238;2022-10-16T08:24:56;12.25;;;7.95;;
66751;SDS011;53663;42.676;23.238;2022-10-16T08:27:22;18.55;;;9.20;;
66751;SDS011;53663;42.676;23.238;2022-10-16T08:29:50;14.38;;;8.50;;
66751;SDS011;53663;42.676;23.238;2022-10-16T08:32:16;13.05;;;8.60;;
66751;SDS011;53663;42.676;23.238;2022-10-16T08:34:41;11.75;;;8.82;;
66751;SDS011;53663;42.676;23.238;2022-10-16T08:37:07;15.50;;;8.82;;
66751;SDS011;53663;42.676;23.238;2022-10-16T08:39:36;13.50;;;8.10;;
66751;SDS011;53663;42.676;23.238;2022-10-16T08:47:55;13.57;;;6.22;;
66751;SDS011;53663;42.676;23.238;2022-10-16T08:50:24;10.73;;;5.88;;
66751;SDS011;53663;42.676;23.238;2022-10-16T08:52:53;10.25;;;5.68;;
66751;SDS011;53663;42.676;23.238;2022-10-16T08:57:54;7.78;;;5.60;;
66751;SDS011;53663;42.676;23.238;2022-10-16T09:00:20;8.90;;;4.88;;
66751;SDS011;53663;42.676;23.238;2022-10-16T09:02:53;8.70;;;5.43;;
66751;SDS011;53663;42.676;23.238;2022-10-16T09:08:33;6.88;;;5.13;;
66751;SDS011;53663;42.676;23.238;2022-10-16T09:11:30;8.90;;;4.60;;
66751;SDS011;53663;42.676;23.238;2022-10-16T09:14:20;8.25;;;4.65;;
66751;SDS011;53663;42.676;23.238;2022-10-16T09:22:41;7.03;;;4.15;;
66751;SDS011;53663;42.676;23.238;2022-10-16T09:25:10;6.88;;;3.83;;
66751;SDS011;53663;42.676;23.238;2022-10-16T09:27:38;8.32;;;4.00;;
66751;SDS011;53663;42.676;23.238;2022-10-16T09:30:14;6.40;;;4.28;;
66751;SDS011;53663;42.676;23.238;2022-10-16T09:32:42;12.57;;;3.67;;
66751;SDS011;53663;42.676;23.238;2022-10-16T09:35:19;6.00;;;3.70;;
66751;SDS011;53663;42.676;23.238;2022-10-16T09:37:48;8.85;;;4.05;;
66751;SDS011;53663;42.676;23.238;2022-10-16T09:45:54;8.85;;;3.97;;
66751;SDS011;53663;42.676;23.238;2022-10-16T09:48:25;6.72;;;3.75;;
66751;SDS011;53663;42.676;23.238;2022-10-16T09:50:56;7.55;;;3.50;;
66751;SDS011;53663;42.676;23.238;2022-10-16T09:53:37;8.05;;;3.80;;
66751;SDS011;53663;42.676;23.238;2022-10-16T09:56:09;7.90;;;3.67;;
66751;SDS011;53663;42.676;23.238;2022-10-16T09:58:41;8.07;;;3.33;;
66751;SDS011;53663;42.676;23.238;2022-10-16T10:01:13;5.35;;;3.50;;
66751;SDS011;53663;42.676;23.238;2022-10-16T10:03:41;4.55;;;3.00;;
66751;SDS011;53663;42.676;23.238;2022-10-16T10:06:25;6.50;;;3.30;;
66751;SDS011;53663;42.676;23.238;2022-10-16T10:08:53;6.63;;;3.38;;
66751;SDS011;53663;42.676;23.238;2022-10-16T10:11:38;5.57;;;3.35;;
66751;SDS011;53663;42.676;23.238;2022-10-16T10:14:19;6.53;;;3.38;;
66751;SDS011;53663;42.676;23.238;2022-10-16T10:16:47;7.57;;;3.65;;
66751;SDS011;53663;42.676;23.238;2022-10-16T10:19:14;8.32;;;3.15;;
66751;SDS011;53663;42.676;23.238;2022-10-16T10:21:48;7.05;;;2.78;;
66751;SDS011;53663;42.676;23.238;2022-10-16T10:24:16;6.32;;;3.15;;
66751;SDS011;53663;42.676;23.238;2022-10-16T10:27:06;5.63;;;3.10;;
66751;SDS011;53663;42.676;23.238;2022-10-16T10:42:57;6.88;;;3.33;;
66751;SDS011;53663;42.676;23.238;2022-10-16T10:50:47;13.35;;;4.45;;
66751;SDS011;53663;42.676;23.238;2022-10-16T11:08:01;5.05;;;2.95;;
66751;SDS011;53663;42.676;23.238;2022-10-16T11:13:20;4.45;;;2.85;;
66751;SDS011;53663;42.676;23.238;2022-10-16T11:15:48;8.43;;;3.38;;
66751;SDS011;53663;42.676;23.238;2022-10-16T11:18:18;6.88;;;2.72;;
66751;SDS011;53663;42.676;23.238;2022-10-16T11:20:50;4.85;;;3.20;;
66751;SDS011;53663;42.676;23.238;2022-10-16T11:23:26;18.55;;;10.50;;
66751;SDS011;53663;42.676;23.238;2022-10-16T11:26:02;6.30;;;2.70;;
66751;SDS011;53663;42.676;23.238;2022-10-16T11:28:39;7.20;;;3.20;;
66751;SDS011;53663;42.676;23.238;2022-10-16T11:36:46;5.55;;;2.80;;
66751;SDS011;53663;42.676;23.238;2022-10-16T11:39:25;4.88;;;3.17;;
66751;SDS011;53663;42.676;23.238;2022-10-16T11:41:55;13.65;;;8.93;;
66751;SDS011;53663;42.676;23.238;2022-10-16T11:44:49;4.93;;;3.45;;
66751;SDS011;53663;42.676;23.238;2022-10-16T11:47:33;6.88;;;2.92;;
66751;SDS011;53663;42.676;23.238;2022-10-16T11:50:02;7.15;;;3.42;;
66751;SDS011;53663;42.676;23.238;2022-10-16T11:52:42;5.43;;;2.90;;
66751;SDS011;53663;42.676;23.238;2022-10-16T11:55:32;8.55;;;3.10;;
66751;SDS011;53663;42.676;23.238;2022-10-16T11:58:05;6.75;;;2.67;;
66751;SDS011;53663;42.676;23.238;2022-10-16T12:08:50;4.95;;;2.63;;
66751;SDS011;53663;42.676;23.238;2022-10-16T12:14:05;8.10;;;2.88;;
66751;SDS011;53663;42.676;23.238;2022-10-16T12:16:32;7.47;;;2.83;;
66751;SDS011;53663;42.676;23.238;2022-10-16T12:21:55;3.22;;;2.13;;
66751;SDS011;53663;42.676;23.238;2022-10-16T12:26:51;3.58;;;2.30;;
66751;SDS011;53663;42.676;23.238;2022-10-16T12:29:32;4.55;;;2.42;;
66751;SDS011;53663;42.676;23.238;2022-10-16T12:31:58;3.92;;;2.63;;
66751;SDS011;53663;42.676;23.238;2022-10-16T12:34:29;6.47;;;2.50;;
66751;SDS011;53663;42.676;23.238;2022-10-16T12:37:11;26.48;;;5.20;;
66751;SDS011;53663;42.676;23.238;2022-10-16T12:39:40;4.15;;;2.53;;
66751;SDS011;53663;42.676;23.238;2022-10-16T12:42:23;4.20;;;2.42;;
66751;SDS011;53663;42.676;23.238;2022-10-16T12:44:49;3.53;;;2.65;;
66751;SDS011;53663;42.676;23.238;2022-10-16T12:49:49;58.75;;;6.50;;
66751;SDS011;53663;42.676;23.238;2022-10-16T12:52:27;3.25;;;2.28;;
66751;SDS011;53663;42.676;23.238;2022-10-16T12:54:56;17.65;;;3.47;;
66751;SDS011;53663;42.676;23.238;2022-10-16T12:57:33;4.88;;;2.58;;
66751;SDS011;53663;42.676;23.238;2022-10-16T13:10:23;7.28;;;2.97;;
66751;SDS011;53663;42.676;23.238;2022-10-16T13:16:02;6.35;;;2.60;;
66751;SDS011;53663;42.676;23.238;2022-10-16T13:21:52;6.90;;;2.85;;
66751;SDS011;53663;42.676;23.238;2022-10-16T13:30:11;6.05;;;3.08;;
66751;SDS011;53663;42.676;23.238;2022-10-16T13:32:43;3.80;;;2.40;;
66751;SDS011;53663;42.676;23.238;2022-10-16T13:35:22;3.95;;;2.30;;
66751;SDS011;53663;42.676;23.238;2022-10-16T13:37:49;8.73;;;2.88;;
66751;SDS011;53663;42.676;23.238;2022-10-16T13:40:20;6.13;;;3.90;;
66751;SDS011;53663;42.676;23.238;2022-10-16T13:42:47;4.35;;;3.00;;
66751;SDS011;53663;42.676;23.238;2022-10-16T13:45:18;6.78;;;2.75;;
66751;SDS011;53663;42.676;23.238;2022-10-16T13:47:45;4.57;;;2.55;;
66751;SDS011;53663;42.676;23.238;2022-10-16T13:50:12;8.38;;;2.50;;
66751;SDS011;53663;42.676;23.238;2022-10-16T13:52:39;3.92;;;2.47;;
66751;SDS011;53663;42.676;23.238;2022-10-16T13:55:16;3.25;;;2.25;;
66751;SDS011;53663;42.676;23.238;2022-10-16T13:57:43;5.97;;;2.97;;
66751;SDS011;53663;42.676;23.238;2022-10-16T14:00:20;4.45;;;2.58;;
66751;SDS011;53663;42.676;23.238;2022-10-16T14:02:52;23.75;;;3.50;;
66751;SDS011;53663;42.676;23.238;2022-10-16T14:05:23;6.05;;;2.60;;
66751;SDS011;53663;42.676;23.238;2022-10-16T14:07:49;6.15;;;2.35;;
66751;SDS011;53663;42.676;23.238;2022-10-16T14:10:21;3.35;;;2.40;;
66751;SDS011;53663;42.676;23.238;2022-10-16T14:12:54;4.75;;;2.50;;
66751;SDS011;53663;42.676;23.238;2022-10-16T14:15:30;7.32;;;2.90;;
66751;SDS011;53663;42.676;23.238;2022-10-16T14:17:58;6.82;;;2.83;;
66751;SDS011;53663;42.676;23.238;2022-10-16T14:20:28;4.28;;;2.53;;
66751;SDS011;53663;42.676;23.238;2022-10-16T14:23:56;4.40;;;2.45;;
66751;SDS011;53663;42.676;23.238;2022-10-16T14:26:05;33.28;;;4.80;;
66751;SDS011;53663;42.676;23.238;2022-10-16T14:28:43;47.45;;;4.68;;
66751;SDS011;53663;42.676;23.238;2022-10-16T14:31:26;5.95;;;2.75;;
66751;SDS011;53663;42.676;23.238;2022-10-16T14:34:02;27.15;;;3.45;;
66751;SDS011;53663;42.676;23.238;2022-10-16T14:36:28;5.43;;;2.50;;
66751;SDS011;53663;42.676;23.238;2022-10-16T14:39:15;5.35;;;2.50;;
66751;SDS011;53663;42.676;23.238;2022-10-16T14:41:45;5.30;;;2.72;;
66751;SDS011;53663;42.676;23.238;2022-10-16T14:44:13;3.80;;;2.60;;
66751;SDS011;53663;42.676;23.238;2022-10-16T14:46:39;10.00;;;4.22;;
66751;SDS011;53663;42.676;23.238;2022-10-16T14:51:36;24.42;;;10.40;;
66751;SDS011;53663;42.676;23.238;2022-10-16T14:54:03;14.20;;;7.47;;
66751;SDS011;53663;42.676;23.238;2022-10-16T14:56:30;9.70;;;4.43;;
66751;SDS011;53663;42.676;23.238;2022-10-16T14:59:00;6.72;;;2.83;;
66751;SDS011;53663;42.676;23.238;2022-10-16T15:01:26;9.68;;;4.82;;
66751;SDS011;53663;42.676;23.238;2022-10-16T15:03:51;11.70;;;3.20;;
66751;SDS011;53663;42.676;23.238;2022-10-16T15:06:20;9.63;;;2.60;;
66751;SDS011;53663;42.676;23.238;2022-10-16T15:08:46;5.57;;;2.50;;
66751;SDS011;53663;42.676;23.238;2022-10-16T15:11:14;8.63;;;2.70;;
66751;SDS011;53663;42.676;23.238;2022-10-16T15:13:42;8.32;;;2.80;;
66751;SDS011;53663;42.676;23.238;2022-10-16T15:16:10;11.30;;;3.00;;
66751;SDS011;53663;42.676;23.238;2022-10-16T15:18:37;11.70;;;3.13;;
66751;SDS011;53663;42.676;23.238;2022-10-16T15:21:03;5.72;;;2.85;;
66751;SDS011;53663;42.676;23.238;2022-10-16T15:23:28;5.97;;;2.95;;
66751;SDS011;53663;42.676;23.238;2022-10-16T15:25:55;6.35;;;2.80;;
66751;SDS011;53663;42.676;23.238;2022-10-16T15:28:22;10.52;;;4.28;;
66751;SDS011;53663;42.676;23.238;2022-10-16T15:30:50;9.07;;;2.65;;
66751;SDS011;53663;42.676;23.238;2022-10-16T15:33:18;6.53;;;2.88;;
66751;SDS011;53663;42.676;23.238;2022-10-16T15:35:50;7.63;;;3.60;;
66751;SDS011;53663;42.676;23.238;2022-10-16T15:38:17;7.30;;;3.30;;
66751;SDS011;53663;42.676;23.238;2022-10-16T15:40:45;9.25;;;4.78;;
66751;SDS011;53663;42.676;23.238;2022-10-16T15:43:11;5.93;;;3.60;;
66751;SDS011;53663;42.676;23.238;2022-10-16T15:45:36;5.22;;;2.83;;
66751;SDS011;53663;42.676;23.238;2022-10-16T15:48:02;8.45;;;3.40;;
66751;SDS011;53663;42.676;23.238;2022-10-16T15:50:28;8.00;;;3.35;;
66751;SDS011;53663;42.676;23.238;2022-10-16T15:52:55;7.95;;;2.95;;
66751;SDS011;53663;42.676;23.238;2022-10-16T15:55:21;8.18;;;3.97;;
66751;SDS011;53663;42.676;23.238;2022-10-16T15:57:47;13.07;;;5.47;;
66751;SDS011;53663;42.676;23.238;2022-10-16T16:00:14;7.25;;;3.50;;
66751;SDS011;53663;42.676;23.238;2022-10-16T16:02:41;8.88;;;5.20;;
66751;SDS011;53663;42.676;23.238;2022-10-16T16:05:08;8.38;;;5.45;;
66751;SDS011;53663;42.676;23.238;2022-10-16T16:07:35;36.45;;;6.60;;
66751;SDS011;53663;42.676;23.238;2022-10-16T16:10:02;10.38;;;3.83;;
66751;SDS011;53663;42.676;23.238;2022-10-16T16:12:30;8.38;;;4.10;;
66751;SDS011;53663;42.676;23.238;2022-10-16T16:14:56;9.77;;;3.78;;
66751;SDS011;53663;42.676;23.238;2022-10-16T16:17:21;14.60;;;3.33;;
66751;SDS011;53663;42.676;23.238;2022-10-16T16:19:47;13.02;;;3.67;;
66751;SDS011;53663;42.676;23.238;2022-10-16T16:22:12;7.28;;;3.50;;
66751;SDS011;53663;42.676;23.238;2022-10-16T16:24:38;9.18;;;3.67;;
66751;SDS011;53663;42.676;23.238;2022-10-16T16:27:04;8.85;;;4.05;;
66751;SDS011;53663;42.676;23.238;2022-10-16T16:29:29;12.82;;;4.22;;
66751;SDS011;53663;42.676;23.238;2022-10-16T16:31:55;10.98;;;3.53;;
66751;SDS011;53663;42.676;23.238;2022-10-16T16:34:23;9.32;;;4.07;;
66751;SDS011;53663;42.676;23.238;2022-10-16T16:36:50;9.48;;;3.97;;
66751;SDS011;53663;42.676;23.238;2022-10-16T16:39:16;9.75;;;4.10;;
66751;SDS011;53663;42.676;23.238;2022-10-16T16:41:42;9.70;;;4.20;;